Terminal Aerodrome Forecast
Issued by NWS

Home | Current Version | Previous Version | Text Only | Print | Product List | Glossary On
Versions: 1 2 3 4 5 6 7 8 9 10 11 12 13
599
FTUS45 KABQ 201120
TAFGUP
TAF
KGUP 201120Z 2012/2112 18006KT P6SM SCT110
     FM201700 23018G28KT P6SM FEW250
     FM202000 23025G35KT P6SM FEW250
     FM210100 23015KT P6SM SCT250
     FM210500 25008KT P6SM SCT250=

USA.gov is the U.S. government's official web portal to all federal, state and local government web resources and services.